Gem, Indiana
Current Conditions -  °F | °C
As of 8:35 AM on Monday 22 Dec 2014 (Local Time) from KMQJ Reporting Station
Scattered Clouds Scattered Clouds  
Wind Chill: 28°   Ceiling: Unl
Heat Index: 34°   Visibility: 7mi
Dew Point: 25°   Wind: 7mph
Humidity: 70%   Direction: 130°SE
Pressure: 29.97"   Gusts: NA
Location:  39.7974°N, 85.7653°W
Report Text: KMQJ 221335Z AUTO 13006KT 7SM SCT075 01/M04 A2997 RMK AO1
Loading
Personal Weather Stations






























Interactive Weather Map New forecast layout! Learn more

10-Day Weather Forecast

Advertisements
Track Severe Weather on mobile